sensor_id;sensor_type;location;lat;lon;timestamp;pressure;altitude;pressure_sealevel;temperature;humidity
6851;BME280;3464;42.728;23.296;2023-05-25T00:00:08;95198.81;;;20.03;72.51
6851;BME280;3464;42.728;23.296;2023-05-25T00:02:36;95213.51;;;19.96;72.96
6851;BME280;3464;42.728;23.296;2023-05-25T00:05:04;95212.22;;;19.82;73.21
6851;BME280;3464;42.728;23.296;2023-05-25T00:07:35;95211.97;;;19.91;72.65
6851;BME280;3464;42.728;23.296;2023-05-25T00:10:17;95204.09;;;19.84;72.44
6851;BME280;3464;42.728;23.296;2023-05-25T00:12:52;95208.27;;;19.85;72.05
6851;BME280;3464;42.728;23.296;2023-05-25T00:15:19;95203.92;;;19.89;71.99
6851;BME280;3464;42.728;23.296;2023-05-25T00:17:46;95210.02;;;19.85;71.52
6851;BME280;3464;42.728;23.296;2023-05-25T00:20:14;95204.56;;;19.96;71.20
6851;BME280;3464;42.728;23.296;2023-05-25T00:22:42;95203.38;;;19.94;71.06
6851;BME280;3464;42.728;23.296;2023-05-25T00:25:09;95207.91;;;19.68;71.99
6851;BME280;3464;42.728;23.296;2023-05-25T00:27:37;95209.93;;;19.87;71.64
6851;BME280;3464;42.728;23.296;2023-05-25T00:30:05;95212.17;;;19.68;72.33
6851;BME280;3464;42.728;23.296;2023-05-25T00:32:32;95209.77;;;19.63;72.68
6851;BME280;3464;42.728;23.296;2023-05-25T00:34:59;95209.81;;;19.62;72.89
6851;BME280;3464;42.728;23.296;2023-05-25T00:37:26;95210.75;;;19.58;73.32
6851;BME280;3464;42.728;23.296;2023-05-25T00:39:55;95210.48;;;19.52;73.58
6851;BME280;3464;42.728;23.296;2023-05-25T00:42:23;95214.16;;;19.43;74.14
6851;BME280;3464;42.728;23.296;2023-05-25T00:44:50;95214.52;;;19.45;74.49
6851;BME280;3464;42.728;23.296;2023-05-25T00:47:16;95213.19;;;19.47;74.30
6851;BME280;3464;42.728;23.296;2023-05-25T00:49:43;95205.03;;;19.49;73.92
6851;BME280;3464;42.728;23.296;2023-05-25T00:52:10;95210.02;;;19.38;74.08
6851;BME280;3464;42.728;23.296;2023-05-25T00:54:36;95223.06;;;19.43;74.49
6851;BME280;3464;42.728;23.296;2023-05-25T00:57:05;95223.41;;;19.46;74.54
6851;BME280;3464;42.728;23.296;2023-05-25T00:59:39;95224.69;;;19.46;74.38
6851;BME280;3464;42.728;23.296;2023-05-25T01:02:09;95221.87;;;19.71;73.45
6851;BME280;3464;42.728;23.296;2023-05-25T01:04:36;95230.47;;;19.68;73.07
6851;BME280;3464;42.728;23.296;2023-05-25T01:07:05;95226.77;;;19.48;73.32
6851;BME280;3464;42.728;23.296;2023-05-25T01:09:32;95225.88;;;19.50;73.79
6851;BME280;3464;42.728;23.296;2023-05-25T01:12:01;95229.59;;;19.54;73.57
6851;BME280;3464;42.728;23.296;2023-05-25T01:14:28;95232.22;;;19.52;73.89
6851;BME280;3464;42.728;23.296;2023-05-25T01:16:56;95229.17;;;19.54;73.94
6851;BME280;3464;42.728;23.296;2023-05-25T01:19:25;95229.75;;;19.49;74.48
6851;BME280;3464;42.728;23.296;2023-05-25T01:22:04;95225.62;;;19.43;74.58
6851;BME280;3464;42.728;23.296;2023-05-25T01:24:32;95223.95;;;19.43;74.79
6851;BME280;3464;42.728;23.296;2023-05-25T01:27:02;95220.59;;;19.40;75.06
6851;BME280;3464;42.728;23.296;2023-05-25T01:29:28;95213.66;;;19.28;76.63
6851;BME280;3464;42.728;23.296;2023-05-25T01:31:55;95208.22;;;19.24;76.97
6851;BME280;3464;42.728;23.296;2023-05-25T01:34:22;95209.77;;;19.31;76.62
6851;BME280;3464;42.728;23.296;2023-05-25T01:36:49;95216.76;;;19.23;76.16
6851;BME280;3464;42.728;23.296;2023-05-25T01:39:19;95207.52;;;19.19;76.60
6851;BME280;3464;42.728;23.296;2023-05-25T01:41:44;95205.16;;;19.29;76.58
6851;BME280;3464;42.728;23.296;2023-05-25T01:44:10;95202.23;;;19.25;76.26
6851;BME280;3464;42.728;23.296;2023-05-25T01:46:38;95198.55;;;19.20;76.37
6851;BME280;3464;42.728;23.296;2023-05-25T01:49:27;95200.75;;;19.18;76.43
6851;BME280;3464;42.728;23.296;2023-05-25T01:52:09;95191.82;;;19.17;76.55
6851;BME280;3464;42.728;23.296;2023-05-25T01:54:36;95202.22;;;19.10;77.15
6851;BME280;3464;42.728;23.296;2023-05-25T01:57:08;95202.06;;;19.15;77.06
6851;BME280;3464;42.728;23.296;2023-05-25T01:59:34;95205.58;;;19.11;77.15
6851;BME280;3464;42.728;23.296;2023-05-25T02:02:01;95207.32;;;19.09;77.97
6851;BME280;3464;42.728;23.296;2023-05-25T02:04:28;95210.14;;;19.16;77.53
6851;BME280;3464;42.728;23.296;2023-05-25T02:06:55;95219.95;;;18.98;78.31
6851;BME280;3464;42.728;23.296;2023-05-25T02:09:22;95222.03;;;19.00;78.03
6851;BME280;3464;42.728;23.296;2023-05-25T02:11:50;95219.88;;;19.01;77.80
6851;BME280;3464;42.728;23.296;2023-05-25T02:14:20;95215.98;;;18.87;79.04
6851;BME280;3464;42.728;23.296;2023-05-25T02:16:53;95219.73;;;18.90;79.10
6851;BME280;3464;42.728;23.296;2023-05-25T02:19:22;95223.17;;;18.87;78.82
6851;BME280;3464;42.728;23.296;2023-05-25T02:21:48;95218.14;;;18.85;78.91
6851;BME280;3464;42.728;23.296;2023-05-25T02:24:16;95219.38;;;18.87;78.48
6851;BME280;3464;42.728;23.296;2023-05-25T02:26:45;95227.42;;;18.88;78.87
6851;BME280;3464;42.728;23.296;2023-05-25T02:29:12;95227.31;;;18.92;78.54
6851;BME280;3464;42.728;23.296;2023-05-25T02:31:41;95225.09;;;18.79;78.92
6851;BME280;3464;42.728;23.296;2023-05-25T02:34:09;95227.28;;;18.76;79.47
6851;BME280;3464;42.728;23.296;2023-05-25T02:36:36;95225.05;;;18.81;78.70
6851;BME280;3464;42.728;23.296;2023-05-25T02:39:05;95233.94;;;18.82;78.61
6851;BME280;3464;42.728;23.296;2023-05-25T02:41:36;95238.27;;;18.80;78.63
6851;BME280;3464;42.728;23.296;2023-05-25T02:44:04;95241.03;;;18.88;79.00
6851;BME280;3464;42.728;23.296;2023-05-25T02:46:31;95240.88;;;18.94;78.61
6851;BME280;3464;42.728;23.296;2023-05-25T02:48:58;95241.31;;;18.94;78.75
6851;BME280;3464;42.728;23.296;2023-05-25T02:51:26;95243.47;;;18.93;79.00
6851;BME280;3464;42.728;23.296;2023-05-25T02:53:54;95249.84;;;18.93;78.29
6851;BME280;3464;42.728;23.296;2023-05-25T02:56:24;95249.17;;;19.03;78.06
6851;BME280;3464;42.728;23.296;2023-05-25T02:58:51;95248.07;;;19.13;78.01
6851;BME280;3464;42.728;23.296;2023-05-25T03:01:18;95253.84;;;19.20;77.44
6851;BME280;3464;42.728;23.296;2023-05-25T03:03:47;95263.84;;;19.11;77.85
6851;BME280;3464;42.728;23.296;2023-05-25T03:06:13;95265.34;;;19.38;77.56
6851;BME280;3464;42.728;23.296;2023-05-25T03:08:40;95258.69;;;19.48;75.91
6851;BME280;3464;42.728;23.296;2023-05-25T03:11:08;95253.03;;;19.69;75.08
6851;BME280;3464;42.728;23.296;2023-05-25T03:13:36;95257.90;;;19.78;74.20
6851;BME280;3464;42.728;23.296;2023-05-25T03:16:07;95248.43;;;19.96;74.03
6851;BME280;3464;42.728;23.296;2023-05-25T03:18:33;95256.95;;;20.11;73.07
6851;BME280;3464;42.728;23.296;2023-05-25T03:21:00;95262.23;;;20.06;72.54
6851;BME280;3464;42.728;23.296;2023-05-25T03:23:28;95262.98;;;19.89;72.83
6851;BME280;3464;42.728;23.296;2023-05-25T03:25:56;95263.42;;;20.09;72.18
6851;BME280;3464;42.728;23.296;2023-05-25T03:28:24;95264.02;;;20.33;71.48
6851;BME280;3464;42.728;23.296;2023-05-25T03:30:53;95255.61;;;20.71;70.75
6851;BME280;3464;42.728;23.296;2023-05-25T03:33:22;95260.83;;;21.72;68.35
6851;BME280;3464;42.728;23.296;2023-05-25T03:35:50;95255.78;;;23.29;62.28
6851;BME280;3464;42.728;23.296;2023-05-25T03:38:17;95256.53;;;23.21;61.42
6851;BME280;3464;42.728;23.296;2023-05-25T03:40:44;95264.11;;;23.24;59.91
6851;BME280;3464;42.728;23.296;2023-05-25T03:43:12;95261.03;;;22.38;62.55
6851;BME280;3464;42.728;23.296;2023-05-25T03:45:39;95257.81;;;22.44;62.52
6851;BME280;3464;42.728;23.296;2023-05-25T03:48:06;95261.80;;;24.19;59.20
6851;BME280;3464;42.728;23.296;2023-05-25T03:50:32;95263.95;;;25.97;54.26
6851;BME280;3464;42.728;23.296;2023-05-25T03:52:59;95268.13;;;26.81;51.79
6851;BME280;3464;42.728;23.296;2023-05-25T03:55:29;95270.84;;;27.25;49.38
6851;BME280;3464;42.728;23.296;2023-05-25T03:58:00;95264.59;;;28.03;48.02
6851;BME280;3464;42.728;23.296;2023-05-25T04:00:28;95269.56;;;28.20;47.55
6851;BME280;3464;42.728;23.296;2023-05-25T04:02:55;95267.77;;;29.25;45.71
6851;BME280;3464;42.728;23.296;2023-05-25T04:05:21;95263.84;;;30.85;42.42
6851;BME280;3464;42.728;23.296;2023-05-25T04:07:48;95270.09;;;32.00;39.81
6851;BME280;3464;42.728;23.296;2023-05-25T04:10:16;95275.33;;;32.84;38.18
6851;BME280;3464;42.728;23.296;2023-05-25T04:12:44;95275.07;;;33.14;37.82
6851;BME280;3464;42.728;23.296;2023-05-25T04:15:11;95270.88;;;33.07;36.68
6851;BME280;3464;42.728;23.296;2023-05-25T04:17:39;95280.52;;;30.07;39.98
6851;BME280;3464;42.728;23.296;2023-05-25T04:20:08;95276.77;;;30.24;40.95
6851;BME280;3464;42.728;23.296;2023-05-25T04:22:36;95283.89;;;31.32;38.80
6851;BME280;3464;42.728;23.296;2023-05-25T04:25:05;95290.81;;;30.14;40.15
6851;BME280;3464;42.728;23.296;2023-05-25T04:27:32;95290.79;;;29.89;40.39
6851;BME280;3464;42.728;23.296;2023-05-25T04:30:11;95293.63;;;29.53;41.34
6851;BME280;3464;42.728;23.296;2023-05-25T04:32:42;95297.14;;;28.77;42.27
6851;BME280;3464;42.728;23.296;2023-05-25T04:35:10;95296.88;;;28.75;42.57
6851;BME280;3464;42.728;23.296;2023-05-25T04:37:40;95303.08;;;28.58;43.08
6851;BME280;3464;42.728;23.296;2023-05-25T04:40:13;95304.48;;;29.65;41.78
6851;BME280;3464;42.728;23.296;2023-05-25T04:42:41;95298.94;;;30.85;40.15
6851;BME280;3464;42.728;23.296;2023-05-25T04:45:10;95297.95;;;33.80;36.30
6851;BME280;3464;42.728;23.296;2023-05-25T04:47:37;95295.71;;;35.77;33.44
6851;BME280;3464;42.728;23.296;2023-05-25T04:50:08;95292.44;;;37.59;31.09
6851;BME280;3464;42.728;23.296;2023-05-25T04:52:36;95289.60;;;39.00;29.41
6851;BME280;3464;42.728;23.296;2023-05-25T04:55:16;95282.08;;;40.39;27.61
6851;BME280;3464;42.728;23.296;2023-05-25T04:57:52;95275.98;;;40.03;27.80
6851;BME280;3464;42.728;23.296;2023-05-25T05:00:40;95272.46;;;41.21;26.33
6851;BME280;3464;42.728;23.296;2023-05-25T05:03:09;95278.44;;;41.96;25.37
6851;BME280;3464;42.728;23.296;2023-05-25T05:05:38;95269.92;;;42.23;25.04
6851;BME280;3464;42.728;23.296;2023-05-25T05:08:05;95282.97;;;41.33;26.16
6851;BME280;3464;42.728;23.296;2023-05-25T05:10:37;95282.09;;;41.06;26.31
6851;BME280;3464;42.728;23.296;2023-05-25T05:13:07;95282.42;;;42.44;24.60
6851;BME280;3464;42.728;23.296;2023-05-25T05:15:38;95277.16;;;42.54;24.14
6851;BME280;3464;42.728;23.296;2023-05-25T05:18:05;95273.12;;;43.25;23.75
6851;BME280;3464;42.728;23.296;2023-05-25T05:20:32;95277.25;;;44.12;22.67
6851;BME280;3464;42.728;23.296;2023-05-25T05:23:01;95278.35;;;44.45;22.41
6851;BME280;3464;42.728;23.296;2023-05-25T05:25:30;95282.59;;;45.09;22.38
6851;BME280;3464;42.728;23.296;2023-05-25T05:27:58;95289.61;;;43.63;23.04
6851;BME280;3464;42.728;23.296;2023-05-25T05:30:25;95289.03;;;43.06;23.04
6851;BME280;3464;42.728;23.296;2023-05-25T05:32:53;95294.59;;;42.12;24.28
6851;BME280;3464;42.728;23.296;2023-05-25T05:35:19;95299.22;;;40.51;25.16
6851;BME280;3464;42.728;23.296;2023-05-25T05:37:48;95299.84;;;40.85;25.07
6851;BME280;3464;42.728;23.296;2023-05-25T05:40:15;95298.25;;;38.88;26.78
6851;BME280;3464;42.728;23.296;2023-05-25T05:42:43;95296.88;;;39.23;26.58
6851;BME280;3464;42.728;23.296;2023-05-25T05:45:10;95292.48;;;38.55;27.79
6851;BME280;3464;42.728;23.296;2023-05-25T05:47:39;95298.63;;;39.60;26.66
6851;BME280;3464;42.728;23.296;2023-05-25T05:50:06;95304.10;;;39.25;26.98
6851;BME280;3464;42.728;23.296;2023-05-25T05:52:35;95295.52;;;41.24;24.88
6851;BME280;3464;42.728;23.296;2023-05-25T05:55:01;95296.12;;;40.36;25.22
6851;BME280;3464;42.728;23.296;2023-05-25T05:57:28;95298.70;;;38.02;27.49
6851;BME280;3464;42.728;23.296;2023-05-25T05:59:55;95302.56;;;38.42;27.51
6851;BME280;3464;42.728;23.296;2023-05-25T06:02:23;95307.48;;;36.99;29.04
6851;BME280;3464;42.728;23.296;2023-05-25T06:04:49;95297.92;;;38.36;28.38
6851;BME280;3464;42.728;23.296;2023-05-25T06:07:16;95298.03;;;40.78;25.69
6851;BME280;3464;42.728;23.296;2023-05-25T06:09:44;95291.86;;;42.31;24.43
6851;BME280;3464;42.728;23.296;2023-05-25T06:12:12;95297.75;;;44.00;23.45
6851;BME280;3464;42.728;23.296;2023-05-25T06:14:41;95293.95;;;43.70;23.00
6851;BME280;3464;42.728;23.296;2023-05-25T06:17:28;95296.18;;;42.32;24.17
6851;BME280;3464;42.728;23.296;2023-05-25T06:19:57;95296.09;;;44.52;22.66
6851;BME280;3464;42.728;23.296;2023-05-25T06:22:24;95301.52;;;45.30;22.00
6851;BME280;3464;42.728;23.296;2023-05-25T06:24:57;95300.67;;;47.93;19.89
6851;BME280;3464;42.728;23.296;2023-05-25T06:27:25;95291.14;;;49.63;18.53
6851;BME280;3464;42.728;23.296;2023-05-25T06:29:53;95298.95;;;50.20;18.44
6851;BME280;3464;42.728;23.296;2023-05-25T06:32:21;95297.52;;;48.74;19.08
6851;BME280;3464;42.728;23.296;2023-05-25T06:34:48;95301.80;;;49.48;19.00
6851;BME280;3464;42.728;23.296;2023-05-25T06:37:17;95305.41;;;47.88;19.26
6851;BME280;3464;42.728;23.296;2023-05-25T06:39:47;95305.63;;;48.49;19.12
6851;BME280;3464;42.728;23.296;2023-05-25T06:42:17;95311.34;;;48.40;19.26
6851;BME280;3464;42.728;23.296;2023-05-25T06:44:45;95307.58;;;48.75;18.88
6851;BME280;3464;42.728;23.296;2023-05-25T06:47:16;95308.52;;;45.58;21.03
6851;BME280;3464;42.728;23.296;2023-05-25T06:49:45;95311.31;;;43.84;22.63
6851;BME280;3464;42.728;23.296;2023-05-25T06:52:14;95310.17;;;45.38;22.00
6851;BME280;3464;42.728;23.296;2023-05-25T06:54:40;95303.86;;;44.98;21.95
6851;BME280;3464;42.728;23.296;2023-05-25T06:57:07;95306.36;;;45.00;22.22
6851;BME280;3464;42.728;23.296;2023-05-25T06:59:35;95304.02;;;46.87;20.65
6851;BME280;3464;42.728;23.296;2023-05-25T07:02:01;95294.07;;;47.59;20.61
6851;BME280;3464;42.728;23.296;2023-05-25T07:04:29;95293.98;;;48.40;19.96
6851;BME280;3464;42.728;23.296;2023-05-25T07:06:56;95297.23;;;48.18;20.20
6851;BME280;3464;42.728;23.296;2023-05-25T07:09:23;95292.16;;;48.37;20.12
6851;BME280;3464;42.728;23.296;2023-05-25T07:11:50;95294.23;;;46.80;20.94
6851;BME280;3464;42.728;23.296;2023-05-25T07:14:16;95287.92;;;46.62;21.49
6851;BME280;3464;42.728;23.296;2023-05-25T07:16:43;95284.84;;;47.50;20.41
6851;BME280;3464;42.728;23.296;2023-05-25T07:19:13;95290.78;;;46.18;21.31
6851;BME280;3464;42.728;23.296;2023-05-25T07:21:54;95288.39;;;45.42;21.85
6851;BME280;3464;42.728;23.296;2023-05-25T07:24:28;95294.38;;;45.57;21.55
6851;BME280;3464;42.728;23.296;2023-05-25T07:26:56;95291.31;;;43.99;23.13
6851;BME280;3464;42.728;23.296;2023-05-25T07:29:26;95292.60;;;43.96;23.51
6851;BME280;3464;42.728;23.296;2023-05-25T07:32:09;95289.69;;;44.43;23.16
6851;BME280;3464;42.728;23.296;2023-05-25T07:34:44;95298.67;;;44.84;23.17
6851;BME280;3464;42.728;23.296;2023-05-25T07:37:14;95300.23;;;41.78;24.04
6851;BME280;3464;42.728;23.296;2023-05-25T07:39:43;95301.14;;;43.09;23.33
6851;BME280;3464;42.728;23.296;2023-05-25T07:42:10;95307.58;;;43.67;22.80
6851;BME280;3464;42.728;23.296;2023-05-25T07:44:39;95304.38;;;38.20;27.10
6851;BME280;3464;42.728;23.296;2023-05-25T07:47:13;95315.69;;;35.40;30.51
6851;BME280;3464;42.728;23.296;2023-05-25T07:49:42;95321.43;;;32.39;33.87
6851;BME280;3464;42.728;23.296;2023-05-25T07:52:13;95315.73;;;30.81;36.56
6851;BME280;3464;42.728;23.296;2023-05-25T07:54:52;95320.13;;;29.51;38.11
6851;BME280;3464;42.728;23.296;2023-05-25T07:57:21;95330.20;;;29.62;38.30
6851;BME280;3464;42.728;23.296;2023-05-25T07:59:50;95342.47;;;28.14;41.18
6851;BME280;3464;42.728;23.296;2023-05-25T08:02:21;95340.09;;;27.95;41.83
6851;BME280;3464;42.728;23.296;2023-05-25T08:04:53;95377.65;;;25.32;46.08
6851;BME280;3464;42.728;23.296;2023-05-25T08:07:30;95382.18;;;24.71;47.27
6851;BME280;3464;42.728;23.296;2023-05-25T08:09:59;95378.14;;;23.95;50.65
6851;BME280;3464;42.728;23.296;2023-05-25T08:12:32;95384.50;;;24.47;49.74
6851;BME280;3464;42.728;23.296;2023-05-25T08:15:00;95398.40;;;23.28;52.77
6851;BME280;3464;42.728;23.296;2023-05-25T08:20:33;95413.70;;;21.74;59.36
6851;BME280;3464;42.728;23.296;2023-05-25T08:23:51;95414.18;;;21.45;66.47
6851;BME280;3464;42.728;23.296;2023-05-25T08:26:26;95426.66;;;20.99;75.36
6851;BME280;3464;42.728;23.296;2023-05-25T08:29:04;95436.59;;;20.17;94.55
6851;BME280;3464;42.728;23.296;2023-05-25T08:31:36;95425.86;;;41.28;100.00
6851;BME280;3464;42.728;23.296;2023-05-25T08:40:35;95376.86;;;36.87;35.19
6851;BME280;3464;42.728;23.296;2023-05-25T08:43:22;95373.21;;;36.84;36.83
6851;BME280;3464;42.728;23.296;2023-05-25T08:46:03;95378.22;;;34.57;38.54
6851;BME280;3464;42.728;23.296;2023-05-25T08:48:34;95384.32;;;33.02;39.43
6851;BME280;3464;42.728;23.296;2023-05-25T08:51:07;95384.25;;;34.27;37.83
6851;BME280;3464;42.728;23.296;2023-05-25T08:53:38;95378.93;;;33.91;37.80
6851;BME280;3464;42.728;23.296;2023-05-25T08:56:27;95378.70;;;35.37;36.71
6851;BME280;3464;42.728;23.296;2023-05-25T09:02:18;95389.16;;;38.09;32.99
6851;BME280;3464;42.728;23.296;2023-05-25T09:07:57;95396.80;;;35.20;37.99
6851;BME280;3464;42.728;23.296;2023-05-25T09:10:25;95408.03;;;-140.84;36.61
6851;BME280;3464;42.728;23.296;2023-05-25T09:12:52;95408.55;;;34.07;38.19
6851;BME280;3464;42.728;23.296;2023-05-25T09:15:18;95406.90;;;34.32;38.46
6851;BME280;3464;42.728;23.296;2023-05-25T09:17:47;95401.91;;;34.81;37.70
6851;BME280;3464;42.728;23.296;2023-05-25T09:20:13;95408.20;;;35.55;36.58
6851;BME280;3464;42.728;23.296;2023-05-25T09:22:40;106981.83;;;147.02;100.00
6851;BME280;3464;42.728;23.296;2023-05-25T09:25:08;106981.83;;;-140.84;100.00
6851;BME280;3464;42.728;23.296;2023-05-25T09:27:41;106981.83;;;-140.84;100.00
6851;BME280;3464;42.728;23.296;2023-05-25T09:30:26;106981.83;;;-140.84;100.00
6851;BME280;3464;42.728;23.296;2023-05-25T09:32:54;106981.83;;;-140.84;100.00
6851;BME280;3464;42.728;23.296;2023-05-25T09:38:38;106981.83;;;-140.84;100.00
6851;BME280;3464;42.728;23.296;2023-05-25T09:41:08;106981.83;;;-140.84;100.00
6851;BME280;3464;42.728;23.296;2023-05-25T09:43:38;106981.83;;;-140.84;100.00
6851;BME280;3464;42.728;23.296;2023-05-25T09:46:07;106981.83;;;-140.84;100.00
6851;BME280;3464;42.728;23.296;2023-05-25T09:48:35;106981.83;;;-140.84;100.00
6851;BME280;3464;42.728;23.296;2023-05-25T09:54:10;106981.83;;;-140.84;100.00
6851;BME280;3464;42.728;23.296;2023-05-25T09:57:01;106981.83;;;-140.84;100.00
6851;BME280;3464;42.728;23.296;2023-05-25T09:59:32;106981.83;;;-140.84;100.00
6851;BME280;3464;42.728;23.296;2023-05-25T10:02:05;106981.83;;;-140.84;100.00
6851;BME280;3464;42.728;23.296;2023-05-25T10:04:37;106981.83;;;-140.84;100.00
6851;BME280;3464;42.728;23.296;2023-05-25T10:07:07;106981.83;;;-140.84;100.00
6851;BME280;3464;42.728;23.296;2023-05-25T10:09:40;106981.83;;;-140.84;100.00
6851;BME280;3464;42.728;23.296;2023-05-25T10:12:09;106981.83;;;-140.84;100.00
6851;BME280;3464;42.728;23.296;2023-05-25T10:14:37;106981.83;;;-140.84;100.00
6851;BME280;3464;42.728;23.296;2023-05-25T10:17:23;106981.83;;;-140.84;100.00
6851;BME280;3464;42.728;23.296;2023-05-25T10:19:56;106981.83;;;-140.84;100.00
6851;BME280;3464;42.728;23.296;2023-05-25T10:22:25;106981.83;;;-140.84;100.00
6851;BME280;3464;42.728;23.296;2023-05-25T10:25:07;106981.83;;;-140.84;100.00
6851;BME280;3464;42.728;23.296;2023-05-25T10:27:46;106981.83;;;-140.84;100.00
6851;BME280;3464;42.728;23.296;2023-05-25T10:30:16;106981.83;;;-140.84;100.00
6851;BME280;3464;42.728;23.296;2023-05-25T10:32:45;106981.83;;;-140.84;100.00
6851;BME280;3464;42.728;23.296;2023-05-25T10:35:13;106981.83;;;-140.84;100.00
6851;BME280;3464;42.728;23.296;2023-05-25T10:37:39;106981.83;;;-140.84;100.00
6851;BME280;3464;42.728;23.296;2023-05-25T10:40:07;106981.83;;;-140.84;100.00
6851;BME280;3464;42.728;23.296;2023-05-25T10:42:34;106981.83;;;-140.84;100.00
6851;BME280;3464;42.728;23.296;2023-05-25T10:45:01;106981.83;;;-140.84;100.00
6851;BME280;3464;42.728;23.296;2023-05-25T10:47:27;106981.83;;;-140.84;100.00
6851;BME280;3464;42.728;23.296;2023-05-25T10:49:55;106981.83;;;-140.84;100.00
6851;BME280;3464;42.728;23.296;2023-05-25T10:52:23;106981.83;;;-140.84;100.00
6851;BME280;3464;42.728;23.296;2023-05-25T10:54:48;106981.83;;;-140.84;100.00
6851;BME280;3464;42.728;23.296;2023-05-25T10:57:20;106981.83;;;-140.84;100.00
6851;BME280;3464;42.728;23.296;2023-05-25T10:59:50;106981.83;;;-140.84;100.00
6851;BME280;3464;42.728;23.296;2023-05-25T11:02:19;106981.83;;;-140.84;100.00
6851;BME280;3464;42.728;23.296;2023-05-25T11:04:49;106981.83;;;-140.84;100.00
6851;BME280;3464;42.728;23.296;2023-05-25T11:07:16;106981.83;;;-140.84;100.00
6851;BME280;3464;42.728;23.296;2023-05-25T11:09:56;106981.83;;;-140.84;100.00
6851;BME280;3464;42.728;23.296;2023-05-25T11:12:24;106981.83;;;-140.84;100.00
6851;BME280;3464;42.728;23.296;2023-05-25T11:17:31;106981.83;;;-140.84;100.00
6851;BME280;3464;42.728;23.296;2023-05-25T11:20:20;106981.83;;;-140.84;100.00
6851;BME280;3464;42.728;23.296;2023-05-25T11:22:56;106981.83;;;-140.84;100.00
6851;BME280;3464;42.728;23.296;2023-05-25T11:25:35;106981.83;;;-140.84;100.00
6851;BME280;3464;42.728;23.296;2023-05-25T11:28:06;106981.83;;;-140.84;100.00
6851;BME280;3464;42.728;23.296;2023-05-25T11:30:34;106981.83;;;-140.84;100.00
6851;BME280;3464;42.728;23.296;2023-05-25T11:33:03;106981.83;;;-140.84;100.00
6851;BME280;3464;42.728;23.296;2023-05-25T11:35:40;106981.83;;;-140.84;100.00
6851;BME280;3464;42.728;23.296;2023-05-25T11:38:09;106981.83;;;-140.84;100.00
6851;BME280;3464;42.728;23.296;2023-05-25T11:40:37;106981.83;;;-140.84;100.00
6851;BME280;3464;42.728;23.296;2023-05-25T11:43:04;106981.83;;;-140.84;100.00
6851;BME280;3464;42.728;23.296;2023-05-25T11:45:37;106981.83;;;-140.84;100.00
6851;BME280;3464;42.728;23.296;2023-05-25T11:48:20;106981.83;;;-140.84;100.00
6851;BME280;3464;42.728;23.296;2023-05-25T11:51:07;106981.83;;;-140.84;100.00
6851;BME280;3464;42.728;23.296;2023-05-25T11:53:40;106981.83;;;-140.84;100.00
6851;BME280;3464;42.728;23.296;2023-05-25T11:56:03;106981.83;;;-140.84;100.00
6851;BME280;3464;42.728;23.296;2023-05-25T11:58:33;106981.83;;;-140.84;100.00
6851;BME280;3464;42.728;23.296;2023-05-25T12:01:12;106981.83;;;-140.84;100.00
6851;BME280;3464;42.728;23.296;2023-05-25T12:03:38;106981.83;;;-140.84;100.00
6851;BME280;3464;42.728;23.296;2023-05-25T12:06:04;106981.83;;;-140.84;100.00
6851;BME280;3464;42.728;23.296;2023-05-25T12:08:34;106981.83;;;-140.84;100.00
6851;BME280;3464;42.728;23.296;2023-05-25T12:11:02;106981.83;;;-140.84;100.00
6851;BME280;3464;42.728;23.296;2023-05-25T12:13:30;106981.83;;;-140.84;100.00
6851;BME280;3464;42.728;23.296;2023-05-25T12:15:57;106981.83;;;-140.84;100.00
6851;BME280;3464;42.728;23.296;2023-05-25T12:18:26;106981.83;;;-140.84;100.00
6851;BME280;3464;42.728;23.296;2023-05-25T12:20:52;106981.83;;;-140.84;100.00
6851;BME280;3464;42.728;23.296;2023-05-25T12:23:20;106981.83;;;-140.84;100.00
6851;BME280;3464;42.728;23.296;2023-05-25T12:25:48;106981.83;;;-140.84;100.00
6851;BME280;3464;42.728;23.296;2023-05-25T12:28:15;106981.83;;;-140.84;100.00
6851;BME280;3464;42.728;23.296;2023-05-25T12:30:43;106981.83;;;-140.84;100.00
6851;BME280;3464;42.728;23.296;2023-05-25T12:33:11;106981.83;;;-140.84;100.00
6851;BME280;3464;42.728;23.296;2023-05-25T12:35:51;106981.83;;;-140.84;100.00
6851;BME280;3464;42.728;23.296;2023-05-25T12:51:14;106981.83;;;-140.84;100.00
6851;BME280;3464;42.728;23.296;2023-05-25T12:53:59;106981.83;;;-140.84;100.00
6851;BME280;3464;42.728;23.296;2023-05-25T12:56:51;106981.83;;;-140.84;100.00
6851;BME280;3464;42.728;23.296;2023-05-25T12:59:13;106981.83;;;-140.84;100.00
6851;BME280;3464;42.728;23.296;2023-05-25T13:01:54;106981.83;;;-140.84;100.00
6851;BME280;3464;42.728;23.296;2023-05-25T13:04:29;106981.83;;;-140.84;100.00
6851;BME280;3464;42.728;23.296;2023-05-25T13:10:13;106981.83;;;-140.84;100.00
6851;BME280;3464;42.728;23.296;2023-05-25T13:12:40;106981.83;;;-140.84;100.00
6851;BME280;3464;42.728;23.296;2023-05-25T13:15:07;106981.83;;;-140.84;100.00
6851;BME280;3464;42.728;23.296;2023-05-25T13:17:34;106981.83;;;-140.84;100.00
6851;BME280;3464;42.728;23.296;2023-05-25T13:20:02;106981.83;;;-140.84;100.00
6851;BME280;3464;42.728;23.296;2023-05-25T13:22:32;106981.83;;;-140.84;100.00
6851;BME280;3464;42.728;23.296;2023-05-25T13:25:07;106981.83;;;-140.84;100.00
6851;BME280;3464;42.728;23.296;2023-05-25T13:27:34;106981.83;;;-140.84;100.00
6851;BME280;3464;42.728;23.296;2023-05-25T13:30:04;106981.83;;;-140.84;100.00
6851;BME280;3464;42.728;23.296;2023-05-25T13:32:32;106981.83;;;-140.84;100.00
6851;BME280;3464;42.728;23.296;2023-05-25T13:34:59;106981.83;;;-140.84;100.00
6851;BME280;3464;42.728;23.296;2023-05-25T13:37:26;106981.83;;;-140.84;100.00
6851;BME280;3464;42.728;23.296;2023-05-25T13:39:54;106981.83;;;-140.84;100.00
6851;BME280;3464;42.728;23.296;2023-05-25T13:45:38;106981.83;;;-140.84;100.00
6851;BME280;3464;42.728;23.296;2023-05-25T13:48:07;106981.83;;;-140.84;100.00
6851;BME280;3464;42.728;23.296;2023-05-25T13:50:33;106981.83;;;-140.84;100.00
6851;BME280;3464;42.728;23.296;2023-05-25T13:53:04;106981.83;;;-140.84;100.00
6851;BME280;3464;42.728;23.296;2023-05-25T13:55:31;106981.83;;;-140.84;100.00